Time;durP1;ratioP1;P1;durP2;ratioP2;P2;SDS_P1;SDS_P2;PMS_P1;PMS_P2;Temp;Humidity;BMP_temperature;BMP_pressure;BME280_temperature;BME280_humidity;BME280_pressure;Samples;Min_cycle;Max_cycle;Signal;HPM_P1;HPM_P2
2021/09/11 00:01:27;;;;;;;6.68;5.25;;;;;;;;;;5095164;28;20048;-62
2021/09/11 00:03:53;;;;;;;5.35;4.88;;;;;;;;;;5095011;28;20035;-62
2021/09/11 00:06:18;;;;;;;5.57;5.07;;;;;;;;;;5101145;28;20301;-62
2021/09/11 00:08:43;;;;;;;5.40;4.63;;;;;;;;;;5094260;28;20024;-62
2021/09/11 00:11:08;;;;;;;6.05;5.43;;;;;;;;;;5096040;28;20051;-62
2021/09/11 00:13:34;;;;;;;6.88;4.95;;;;;;;;;;5094622;28;20127;-62
2021/09/11 00:15:59;;;;;;;5.93;4.68;;;;;;;;;;5094478;28;20079;-62
2021/09/11 00:18:24;;;;;;;5.97;5.47;;;;;;;;;;5111205;28;20019;-62
2021/09/11 00:20:49;;;;;;;5.60;5.10;;;;;;;;;;5114635;28;20443;-62
2021/09/11 00:23:14;;;;;;;5.37;4.87;;;;;;;;;;5094236;28;20270;-62
2021/09/11 00:25:40;;;;;;;6.15;5.30;;;;;;;;;;5095673;28;20262;-61
2021/09/11 00:28:05;;;;;;;6.30;5.70;;;;;;;;;;5100463;28;20093;-62
2021/09/11 00:30:30;;;;;;;6.03;5.53;;;;;;;;;;5109460;28;20102;-62
2021/09/11 00:32:55;;;;;;;6.32;5.72;;;;;;;;;;5106418;28;20092;-61
2021/09/11 00:35:21;;;;;;;6.18;5.60;;;;;;;;;;5103199;28;20085;-62
2021/09/11 00:37:46;;;;;;;6.07;5.53;;;;;;;;;;5094233;28;20031;-61
2021/09/11 00:40:13;;;;;;;6.82;6.25;;;;;;;;;;5094254;28;20012;-61
2021/09/11 00:42:41;;;;;;;6.10;5.60;;;;;;;;;;5096291;28;20028;-62
2021/09/11 00:45:06;;;;;;;7.28;6.55;;;;;;;;;;5100344;28;20024;-61
2021/09/11 00:47:32;;;;;;;6.97;6.28;;;;;;;;;;5093684;28;20471;-61
2021/09/11 00:49:57;;;;;;;6.90;6.30;;;;;;;;;;5094093;28;20524;-61
2021/09/11 00:52:22;;;;;;;6.82;6.15;;;;;;;;;;5092763;28;20428;-62
2021/09/11 00:54:48;;;;;;;7.82;6.95;;;;;;;;;;5095786;28;20533;-61
2021/09/11 00:57:14;;;;;;;6.95;6.35;;;;;;;;;;5096250;28;20024;-61
2021/09/11 00:59:39;;;;;;;6.60;6.00;;;;;;;;;;5093810;28;20020;-61
2021/09/11 01:02:04;;;;;;;9.48;6.65;;;;;;;;;;5093323;28;20150;-62
2021/09/11 01:04:30;;;;;;;7.70;7.00;;;;;;;;;;5093862;28;20020;-62
2021/09/11 01:06:55;;;;;;;7.00;6.38;;;;;;;;;;5098305;28;20110;-62
2021/09/11 01:09:21;;;;;;;8.13;6.45;;;;;;;;;;5095099;28;20042;-62
2021/09/11 01:11:46;;;;;;;8.73;7.78;;;;;;;;;;5093219;28;20024;-62
2021/09/11 01:14:11;;;;;;;8.60;7.80;;;;;;;;;;5109160;28;20053;-62
2021/09/11 01:16:37;;;;;;;8.00;7.22;;;;;;;;;;5113800;28;20437;-62
2021/09/11 01:19:02;;;;;;;8.23;7.53;;;;;;;;;;5113863;28;20016;-61
2021/09/11 01:21:27;;;;;;;8.45;7.50;;;;;;;;;;5113952;28;20054;-62
2021/09/11 01:23:52;;;;;;;9.52;7.72;;;;;;;;;;5104242;28;20062;-62
2021/09/11 01:26:17;;;;;;;8.63;7.78;;;;;;;;;;5095109;28;20020;-61
2021/09/11 01:28:43;;;;;;;7.40;6.63;;;;;;;;;;5077400;28;20103;-62
2021/09/11 01:31:08;;;;;;;7.55;6.88;;;;;;;;;;5097358;28;20020;-62
2021/09/11 01:33:33;;;;;;;7.90;7.10;;;;;;;;;;5093000;28;20048;-62
2021/09/11 01:35:58;;;;;;;8.82;7.63;;;;;;;;;;5092537;28;20028;-62
2021/09/11 01:38:24;;;;;;;7.65;7.03;;;;;;;;;;5093289;28;20405;-62
2021/09/11 01:40:49;;;;;;;8.13;7.32;;;;;;;;;;5092666;28;20479;-62
2021/09/11 01:43:15;;;;;;;7.38;6.78;;;;;;;;;;5092984;28;20012;-62
2021/09/11 01:45:40;;;;;;;8.43;7.50;;;;;;;;;;5104176;28;20084;-62
2021/09/11 01:48:05;;;;;;;7.25;6.65;;;;;;;;;;5101534;28;20052;-62
2021/09/11 01:50:31;;;;;;;7.72;6.90;;;;;;;;;;5092681;28;20115;-62
2021/09/11 01:52:56;;;;;;;8.18;7.38;;;;;;;;;;5092955;28;20402;-62
2021/09/11 01:55:21;;;;;;;7.43;6.72;;;;;;;;;;5090926;28;20020;-62
2021/09/11 01:57:46;;;;;;;8.02;7.07;;;;;;;;;;5091996;28;20081;-62
2021/09/11 02:00:12;;;;;;;8.73;7.93;;;;;;;;;;5092619;28;20070;-62
2021/09/11 02:02:37;;;;;;;8.25;7.47;;;;;;;;;;5092698;28;20020;-62
2021/09/11 02:05:06;;;;;;;7.90;7.15;;;;;;;;;;5083672;28;20554;-62
2021/09/11 02:07:32;;;;;;;8.15;7.43;;;;;;;;;;5102825;28;20063;-62
2021/09/11 02:09:57;;;;;;;8.00;7.28;;;;;;;;;;5112026;28;20491;-62
2021/09/11 02:12:22;;;;;;;8.65;6.60;;;;;;;;;;5112032;28;20035;-62
2021/09/11 02:14:47;;;;;;;7.50;6.80;;;;;;;;;;5100955;28;20107;-62
2021/09/11 02:17:13;;;;;;;7.57;6.78;;;;;;;;;;5112582;28;20030;-62
2021/09/11 02:19:38;;;;;;;6.75;6.05;;;;;;;;;;5112785;28;20103;-63
2021/09/11 02:22:04;;;;;;;7.57;6.78;;;;;;;;;;5092373;28;20016;-63
2021/09/11 02:24:30;;;;;;;7.65;7.05;;;;;;;;;;5093983;28;20031;-62
2021/09/11 02:26:55;;;;;;;8.35;7.65;;;;;;;;;;5111494;28;20500;-62
2021/09/11 02:29:20;;;;;;;8.57;7.78;;;;;;;;;;5101203;28;20023;-62
2021/09/11 02:31:46;;;;;;;8.10;7.40;;;;;;;;;;5098890;28;20068;-62
2021/09/11 02:34:11;;;;;;;8.93;8.10;;;;;;;;;;5091744;28;20039;-62
2021/09/11 02:36:36;;;;;;;9.48;8.57;;;;;;;;;;5108250;28;20031;-62
2021/09/11 02:39:01;;;;;;;9.48;8.68;;;;;;;;;;5091909;28;20050;-62
2021/09/11 02:41:27;;;;;;;9.15;8.27;;;;;;;;;;5091453;28;20095;-62
2021/09/11 02:43:52;;;;;;;9.85;8.95;;;;;;;;;;5092736;28;20093;-62
2021/09/11 02:46:17;;;;;;;10.93;9.80;;;;;;;;;;5095229;28;20482;-63
2021/09/11 02:48:42;;;;;;;9.38;8.48;;;;;;;;;;5093998;28;20016;-63
2021/09/11 02:51:08;;;;;;;8.57;7.75;;;;;;;;;;5092196;28;20442;-63
2021/09/11 02:53:33;;;;;;;12.20;8.47;;;;;;;;;;5098058;28;20019;-62
2021/09/11 02:55:58;;;;;;;8.93;8.02;;;;;;;;;;5101751;28;20290;-62
2021/09/11 02:58:24;;;;;;;8.05;7.43;;;;;;;;;;5107605;28;20020;-62
2021/09/11 03:00:49;;;;;;;7.88;7.18;;;;;;;;;;5094660;28;20024;-62
2021/09/11 03:03:15;;;;;;;8.13;7.32;;;;;;;;;;5094723;28;20039;-62
2021/09/11 03:05:40;;;;;;;7.65;7.05;;;;;;;;;;5112219;28;20073;-61
2021/09/11 03:08:05;;;;;;;8.57;7.78;;;;;;;;;;5107048;28;20024;-62
2021/09/11 03:10:30;;;;;;;7.60;6.90;;;;;;;;;;5091376;28;20027;-61
2021/09/11 03:12:56;;;;;;;9.43;8.55;;;;;;;;;;5091859;28;20294;-62
2021/09/11 03:15:22;;;;;;;8.27;7.47;;;;;;;;;;5073692;28;20467;-61
2021/09/11 03:17:47;;;;;;;9.20;8.40;;;;;;;;;;5096542;28;20104;-61
2021/09/11 03:20:12;;;;;;;10.00;9.00;;;;;;;;;;5110698;28;20016;-62
2021/09/11 03:22:37;;;;;;;11.50;10.30;;;;;;;;;;5082576;28;20064;-62
2021/09/11 03:25:03;;;;;;;11.98;10.88;;;;;;;;;;5095506;28;20289;-62
2021/09/11 03:27:28;;;;;;;12.52;11.23;;;;;;;;;;5106963;28;20390;-62
2021/09/11 03:29:53;;;;;;;12.98;11.77;;;;;;;;;;5100119;28;20031;-62
2021/09/11 03:32:18;;;;;;;12.30;11.10;;;;;;;;;;5095280;28;20028;-62
2021/09/11 03:34:44;;;;;;;12.68;11.48;;;;;;;;;;5101873;28;20040;-62
2021/09/11 03:37:09;;;;;;;12.48;11.23;;;;;;;;;;5094825;28;20074;-62
2021/09/11 03:39:35;;;;;;;12.48;11.38;;;;;;;;;;5095596;28;20478;-62
2021/09/11 03:42:00;;;;;;;12.70;11.50;;;;;;;;;;5094460;28;20467;-62
2021/09/11 03:44:25;;;;;;;15.57;13.98;;;;;;;;;;5095562;28;20294;-62
2021/09/11 03:46:50;;;;;;;14.77;13.27;;;;;;;;;;5109899;28;20019;-61
2021/09/11 03:49:15;;;;;;;15.50;14.07;;;;;;;;;;5115279;28;20042;-61
2021/09/11 03:51:41;;;;;;;14.25;13.05;;;;;;;;;;5115597;28;20035;-61
2021/09/11 03:54:06;;;;;;;14.45;13.15;;;;;;;;;;5105867;28;20036;-61
2021/09/11 03:56:31;;;;;;;15.18;13.88;;;;;;;;;;5104921;28;20027;-61
2021/09/11 03:58:56;;;;;;;16.90;15.23;;;;;;;;;;5088704;28;20032;-61
2021/09/11 04:01:21;;;;;;;16.35;14.55;;;;;;;;;;5093474;28;20269;-61
2021/09/11 04:03:47;;;;;;;17.50;15.80;;;;;;;;;;5093588;28;20020;-61
2021/09/11 04:06:12;;;;;;;16.52;15.02;;;;;;;;;;5095207;28;20497;-61
2021/09/11 04:08:38;;;;;;;16.67;15.15;;;;;;;;;;5096101;28;20020;-62
2021/09/11 04:11:03;;;;;;;16.45;14.82;;;;;;;;;;5094673;28;20091;-61
2021/09/11 04:13:28;;;;;;;14.57;13.17;;;;;;;;;;5094323;28;20538;-62
2021/09/11 04:15:53;;;;;;;14.00;12.70;;;;;;;;;;5103042;28;20281;-61
2021/09/11 04:18:18;;;;;;;14.63;13.30;;;;;;;;;;5114529;28;20031;-61
2021/09/11 04:20:44;;;;;;;14.43;12.95;;;;;;;;;;5101696;28;20020;-61
2021/09/11 04:23:09;;;;;;;10.75;9.73;;;;;;;;;;5101453;28;20023;-61
2021/09/11 04:25:34;;;;;;;12.82;11.57;;;;;;;;;;5109407;28;20069;-60
2021/09/11 04:27:59;;;;;;;15.18;13.73;;;;;;;;;;5093055;28;20027;-61
2021/09/11 04:30:25;;;;;;;11.52;10.45;;;;;;;;;;5089497;28;20012;-61
2021/09/11 04:32:50;;;;;;;12.35;11.15;;;;;;;;;;5100828;28;20394;-62
2021/09/11 04:35:15;;;;;;;14.38;13.07;;;;;;;;;;5097695;28;20064;-61
2021/09/11 04:37:41;;;;;;;12.70;11.48;;;;;;;;;;5102084;28;20040;-62
2021/09/11 04:40:06;;;;;;;14.10;12.80;;;;;;;;;;5094848;28;20028;-61
2021/09/11 04:42:31;;;;;;;13.32;12.02;;;;;;;;;;5096104;28;20353;-62
2021/09/11 04:44:56;;;;;;;14.57;13.23;;;;;;;;;;5099739;28;20424;-62
2021/09/11 04:47:22;;;;;;;11.80;10.70;;;;;;;;;;5113759;28;20027;-62
2021/09/11 04:49:47;;;;;;;12.75;11.27;;;;;;;;;;5107471;28;20027;-62
2021/09/11 04:52:12;;;;;;;11.75;10.75;;;;;;;;;;5093945;28;20023;-63
2021/09/11 04:54:37;;;;;;;13.00;11.70;;;;;;;;;;5100050;28;20016;-62
2021/09/11 04:57:03;;;;;;;11.57;10.48;;;;;;;;;;5096186;28;20367;-63
2021/09/11 04:59:28;;;;;;;11.80;10.63;;;;;;;;;;5093575;28;20016;-63
2021/09/11 05:01:53;;;;;;;11.35;10.35;;;;;;;;;;5093704;28;20012;-63
2021/09/11 05:04:19;;;;;;;11.95;10.65;;;;;;;;;;5093810;28;20044;-63
2021/09/11 05:06:44;;;;;;;11.23;10.25;;;;;;;;;;5093759;28;20028;-61
2021/09/11 05:09:09;;;;;;;13.47;12.33;;;;;;;;;;5093263;28;20482;-62
2021/09/11 05:11:34;;;;;;;13.43;12.13;;;;;;;;;;5093142;28;20270;-60
2021/09/11 05:14:00;;;;;;;12.55;11.45;;;;;;;;;;5090887;28;20028;-62
2021/09/11 05:16:25;;;;;;;12.45;11.38;;;;;;;;;;5075493;28;20483;-62
2021/09/11 05:18:50;;;;;;;13.05;11.55;;;;;;;;;;5093108;28;20012;-62
2021/09/11 05:21:15;;;;;;;12.02;10.93;;;;;;;;;;5093452;28;20017;-62
2021/09/11 05:23:40;;;;;;;12.38;11.13;;;;;;;;;;5092990;28;20387;-62
2021/09/11 05:26:06;;;;;;;13.48;12.10;;;;;;;;;;5095651;28;20042;-62
2021/09/11 05:28:31;;;;;;;11.52;10.43;;;;;;;;;;5108771;28;20012;-62
2021/09/11 05:30:56;;;;;;;12.50;11.30;;;;;;;;;;5086195;28;20142;-62
2021/09/11 05:33:21;;;;;;;12.68;11.43;;;;;;;;;;5072698;28;20062;-62
2021/09/11 05:35:47;;;;;;;12.52;11.32;;;;;;;;;;5087289;28;20405;-62
2021/09/11 05:38:12;;;;;;;13.15;11.77;;;;;;;;;;5091746;28;20028;-62
2021/09/11 05:40:37;;;;;;;12.57;11.48;;;;;;;;;;5091156;28;20023;-62
2021/09/11 05:43:03;;;;;;;13.60;12.25;;;;;;;;;;5074381;28;20463;-62
2021/09/11 05:45:28;;;;;;;13.40;11.90;;;;;;;;;;5093144;28;20127;-62
2021/09/11 05:47:53;;;;;;;13.63;12.25;;;;;;;;;;5092634;28;20027;-62
2021/09/11 05:50:19;;;;;;;14.52;13.13;;;;;;;;;;5092508;28;20020;-63
2021/09/11 05:52:44;;;;;;;12.95;11.82;;;;;;;;;;5092914;28;20415;-62
2021/09/11 05:55:09;;;;;;;14.02;12.73;;;;;;;;;;5092116;28;20060;-62
2021/09/11 05:57:34;;;;;;;12.55;11.32;;;;;;;;;;5091468;28;20095;-62
2021/09/11 06:00:00;;;;;;;13.43;12.10;;;;;;;;;;5092516;28;20051;-62
2021/09/11 06:02:25;;;;;;;12.35;11.25;;;;;;;;;;5092653;28;20258;-62
2021/09/11 06:04:51;;;;;;;14.23;12.73;;;;;;;;;;5092443;28;20008;-61
2021/09/11 06:07:16;;;;;;;13.27;12.00;;;;;;;;;;5086996;28;20059;-61
2021/09/11 06:09:41;;;;;;;13.05;11.68;;;;;;;;;;5081269;28;20490;-62
2021/09/11 06:12:10;;;;;;;12.37;11.27;;;;;;;;;;5091446;28;20373;-62
2021/09/11 06:14:35;;;;;;;12.90;11.70;;;;;;;;;;5092719;28;20708;-62
2021/09/11 06:17:00;;;;;;;12.90;11.60;;;;;;;;;;5092266;28;20066;-61
2021/09/11 06:19:26;;;;;;;12.52;11.48;;;;;;;;;;5092267;28;20020;-62
2021/09/11 06:21:51;;;;;;;12.35;11.25;;;;;;;;;;5092041;28;20018;-62
2021/09/11 06:24:16;;;;;;;11.57;10.57;;;;;;;;;;5091596;28;20036;-62
2021/09/11 06:26:41;;;;;;;12.70;11.50;;;;;;;;;;5091484;28;20024;-63
2021/09/11 06:29:07;;;;;;;12.85;11.50;;;;;;;;;;5091559;28;20028;-61
2021/09/11 06:31:32;;;;;;;12.63;11.52;;;;;;;;;;5091881;28;20068;-62
2021/09/11 06:33:57;;;;;;;36.23;11.80;;;;;;;;;;5091713;28;20102;-62
2021/09/11 06:36:22;;;;;;;13.55;12.35;;;;;;;;;;5096014;28;20707;-62
2021/09/11 06:38:47;;;;;;;13.65;12.45;;;;;;;;;;5112342;28;20069;-62
2021/09/11 06:41:13;;;;;;;12.40;11.40;;;;;;;;;;5103264;28;20024;-62
2021/09/11 06:43:38;;;;;;;11.55;10.55;;;;;;;;;;5072839;28;20368;-62
2021/09/11 06:46:03;;;;;;;12.90;11.77;;;;;;;;;;5091945;28;20098;-62
2021/09/11 06:48:28;;;;;;;13.77;12.67;;;;;;;;;;5091212;28;20032;-62
2021/09/11 06:50:54;;;;;;;11.98;10.95;;;;;;;;;;5091956;28;20270;-62
2021/09/11 06:53:19;;;;;;;13.75;12.45;;;;;;;;;;5091609;28;20107;-62
2021/09/11 06:55:44;;;;;;;13.18;11.98;;;;;;;;;;5073393;28;20028;-62
2021/09/11 06:58:10;;;;;;;12.25;11.25;;;;;;;;;;5090732;28;20524;-62
2021/09/11 07:00:35;;;;;;;13.73;12.53;;;;;;;;;;5091360;28;20031;-62
2021/09/11 07:03:00;;;;;;;11.88;10.88;;;;;;;;;;5091790;28;20265;-62
2021/09/11 07:05:25;;;;;;;12.47;11.27;;;;;;;;;;5091440;28;20020;-62
2021/09/11 07:07:50;;;;;;;12.38;11.23;;;;;;;;;;5091116;28;20266;-62
2021/09/11 07:10:16;;;;;;;10.82;9.93;;;;;;;;;;5091383;28;20020;-62
2021/09/11 07:12:41;;;;;;;11.50;10.45;;;;;;;;;;5090560;28;20424;-62
2021/09/11 07:15:06;;;;;;;11.80;10.67;;;;;;;;;;5091570;28;20028;-62
2021/09/11 07:17:32;;;;;;;12.00;11.00;;;;;;;;;;5091099;28;20277;-62
2021/09/11 07:19:57;;;;;;;12.10;11.07;;;;;;;;;;5095273;28;20024;-62
2021/09/11 07:22:22;;;;;;;13.23;11.93;;;;;;;;;;5090860;28;20024;-62
2021/09/11 07:24:47;;;;;;;11.93;10.90;;;;;;;;;;5091355;28;20032;-62
2021/09/11 07:27:13;;;;;;;12.23;11.20;;;;;;;;;;5089044;28;20454;-62
2021/09/11 07:29:38;;;;;;;12.55;11.45;;;;;;;;;;5091257;28;20528;-62
2021/09/11 07:32:04;;;;;;;12.13;11.10;;;;;;;;;;5091475;28;20464;-62
2021/09/11 07:34:30;;;;;;;12.70;11.52;;;;;;;;;;5072740;28;20351;-62
2021/09/11 07:36:55;;;;;;;12.75;11.63;;;;;;;;;;5091615;28;20028;-62
2021/09/11 07:39:20;;;;;;;11.03;10.03;;;;;;;;;;5090957;28;20093;-62
2021/09/11 07:41:45;;;;;;;11.05;9.98;;;;;;;;;;5088885;28;20263;-62
2021/09/11 07:44:11;;;;;;;12.00;10.80;;;;;;;;;;5070763;28;20029;-62
2021/09/11 07:46:37;;;;;;;11.13;10.23;;;;;;;;;;5071111;28;20741;-62
2021/09/11 07:49:02;;;;;;;12.00;11.00;;;;;;;;;;5070972;28;20031;-62
2021/09/11 07:51:27;;;;;;;11.52;10.52;;;;;;;;;;5078337;28;20100;-62
2021/09/11 07:53:53;;;;;;;12.55;11.52;;;;;;;;;;5090926;28;20024;-62
2021/09/11 07:56:19;;;;;;;11.70;10.67;;;;;;;;;;5090932;28;20021;-62
2021/09/11 07:58:45;;;;;;;12.35;11.30;;;;;;;;;;5090459;28;20255;-62
2021/09/11 08:01:10;;;;;;;13.00;11.88;;;;;;;;;;5090589;28;20020;-62
2021/09/11 08:03:36;;;;;;;12.20;11.20;;;;;;;;;;5088061;28;20455;-62
2021/09/11 08:06:07;;;;;;;12.65;11.55;;;;;;;;;;5094843;28;20269;-62
2021/09/11 08:08:32;;;;;;;12.38;11.35;;;;;;;;;;5094017;28;20099;-62
2021/09/11 08:10:57;;;;;;;12.30;11.35;;;;;;;;;;5094221;28;20107;-61
2021/09/11 08:13:23;;;;;;;12.50;11.40;;;;;;;;;;5093926;28;20035;-61
2021/09/11 08:15:48;;;;;;;12.20;11.17;;;;;;;;;;5094521;28;20274;-62
2021/09/11 08:18:13;;;;;;;11.07;10.02;;;;;;;;;;5094400;28;20353;-62
2021/09/11 08:20:38;;;;;;;10.75;9.82;;;;;;;;;;5094499;28;20073;-61
2021/09/11 08:23:04;;;;;;;11.02;10.00;;;;;;;;;;5104714;28;20020;-62
2021/09/11 08:25:30;;;;;;;10.38;9.57;;;;;;;;;;5093680;28;20463;-61
2021/09/11 08:27:55;;;;;;;11.02;10.05;;;;;;;;;;5093186;28;20085;-62
2021/09/11 08:30:20;;;;;;;12.07;11.07;;;;;;;;;;5094236;28;20095;-62
2021/09/11 08:32:45;;;;;;;10.65;9.75;;;;;;;;;;5091870;28;20280;-62
2021/09/11 08:35:13;;;;;;;11.15;10.15;;;;;;;;;;5076112;28;20052;-62
2021/09/11 08:37:38;;;;;;;11.52;10.50;;;;;;;;;;5093394;28;20020;-62
2021/09/11 08:40:04;;;;;;;11.13;10.23;;;;;;;;;;5093749;28;20016;-62
2021/09/11 08:42:29;;;;;;;12.93;11.82;;;;;;;;;;5093333;28;20386;-62
2021/09/11 08:44:54;;;;;;;11.32;10.32;;;;;;;;;;5075913;28;20012;-62
2021/09/11 08:47:20;;;;;;;11.27;10.27;;;;;;;;;;5093878;28;20031;-62
2021/09/11 08:49:45;;;;;;;11.57;10.57;;;;;;;;;;5080143;28;20425;-62
2021/09/11 08:52:12;;;;;;;11.45;10.48;;;;;;;;;;5074483;28;20136;-62
2021/09/11 08:54:38;;;;;;;10.10;9.30;;;;;;;;;;5097869;28;20032;-62
2021/09/11 08:57:23;;;;;;;9.60;8.77;;;;;;;;;;5113594;28;20023;-61
2021/09/11 08:59:49;;;;;;;10.68;9.88;;;;;;;;;;5079774;28;20021;-61
2021/09/11 09:02:16;;;;;;;10.10;9.10;;;;;;;;;;5076327;28;20026;-61
2021/09/11 09:04:41;;;;;;;9.52;8.70;;;;;;;;;;5097836;28;20137;-61
2021/09/11 09:07:06;;;;;;;9.37;8.53;;;;;;;;;;5111364;28;20483;-62
2021/09/11 09:09:38;;;;;;;9.82;9.10;;;;;;;;;;5093264;28;20012;-62
2021/09/11 09:12:10;;;;;;;8.82;8.02;;;;;;;;;;5092676;28;20024;-62
2021/09/11 09:14:36;;;;;;;10.30;9.48;;;;;;;;;;5092192;28;20101;-62
2021/09/11 09:17:09;;;;;;;8.85;8.00;;;;;;;;;;5093091;28;20020;-62
2021/09/11 09:19:34;;;;;;;9.55;8.68;;;;;;;;;;5093146;28;20023;-61
2021/09/11 09:22:02;;;;;;;9.35;8.45;;;;;;;;;;5093534;28;20102;-62
2021/09/11 09:24:28;;;;;;;9.40;8.60;;;;;;;;;;5092838;28;20069;-62
2021/09/11 09:26:57;;;;;;;8.40;7.63;;;;;;;;;;5089874;28;20409;-61
2021/09/11 09:29:23;;;;;;;9.43;8.63;;;;;;;;;;5092562;28;20024;-62
2021/09/11 09:31:49;;;;;;;9.45;8.65;;;;;;;;;;5075109;28;20629;-62
2021/09/11 09:34:33;;;;;;;9.63;8.88;;;;;;;;;;5092523;28;20115;-61
2021/09/11 09:37:00;;;;;;;6.93;6.32;;;;;;;;;;5092264;28;20024;-61
2021/09/11 09:39:25;;;;;;;8.13;7.32;;;;;;;;;;5092267;28;20021;-62
2021/09/11 09:41:51;;;;;;;8.05;7.45;;;;;;;;;;5092183;28;20026;-61
2021/09/11 09:44:18;;;;;;;6.82;6.22;;;;;;;;;;5092922;28;20142;-62
2021/09/11 09:46:44;;;;;;;7.53;6.90;;;;;;;;;;5092477;28;20072;-61
2021/09/11 09:49:09;;;;;;;7.50;6.80;;;;;;;;;;5092576;28;20492;-61
2021/09/11 09:51:35;;;;;;;7.50;6.68;;;;;;;;;;5092985;28;20420;-62
2021/09/11 09:54:00;;;;;;;6.97;6.38;;;;;;;;;;5092643;28;20024;-61
2021/09/11 09:56:27;;;;;;;4.63;4.22;;;;;;;;;;5092480;28;20383;-62
2021/09/11 09:58:52;;;;;;;7.88;7.38;;;;;;;;;;5091516;28;20351;-61
2021/09/11 10:01:18;;;;;;;6.28;5.85;;;;;;;;;;5092503;28;20009;-61
2021/09/11 10:03:43;;;;;;;6.63;6.07;;;;;;;;;;5092543;28;20020;-62
2021/09/11 10:06:11;;;;;;;7.60;6.90;;;;;;;;;;5092138;28;20038;-61
2021/09/11 10:08:41;;;;;;;8.13;7.43;;;;;;;;;;5092297;28;20254;-61
2021/09/11 10:11:10;;;;;;;7.38;6.75;;;;;;;;;;5092815;28;20064;-61
2021/09/11 10:13:36;;;;;;;7.28;6.57;;;;;;;;;;5092100;28;20370;-60
2021/09/11 10:16:06;;;;;;;6.35;5.85;;;;;;;;;;5091999;28;20017;-61
2021/09/11 10:18:35;;;;;;;6.70;6.00;;;;;;;;;;5091170;28;20451;-61
2021/09/11 10:21:09;;;;;;;6.97;6.47;;;;;;;;;;5092062;28;20039;-60
2021/09/11 10:23:34;;;;;;;7.40;6.70;;;;;;;;;;5092142;28;20020;-61
2021/09/11 10:25:59;;;;;;;6.50;5.97;;;;;;;;;;5091885;28;20046;-60
2021/09/11 10:28:24;;;;;;;6.57;6.13;;;;;;;;;;5089385;28;20274;-61
2021/09/11 10:31:05;;;;;;;7.07;6.57;;;;;;;;;;5096264;28;20055;-61
2021/09/11 10:33:45;;;;;;;6.00;5.60;;;;;;;;;;5096386;28;20381;-61
2021/09/11 10:36:23;;;;;;;6.50;5.55;;;;;;;;;;5089671;28;20028;-61
2021/09/11 10:38:52;;;;;;;4.40;4.00;;;;;;;;;;5091767;28;20020;-61
2021/09/11 10:41:18;;;;;;;5.55;5.15;;;;;;;;;;5092267;28;20020;-61
2021/09/11 10:44:03;;;;;;;6.20;5.70;;;;;;;;;;5091609;28;20026;-61
2021/09/11 10:46:48;;;;;;;6.90;6.40;;;;;;;;;;5092017;28;20070;-61
2021/09/11 10:49:25;;;;;;;6.50;5.90;;;;;;;;;;5089754;28;20498;-61
2021/09/11 10:52:06;;;;;;;7.80;7.22;;;;;;;;;;5091747;28;20486;-61
2021/09/11 10:54:38;;;;;;;7.60;7.00;;;;;;;;;;5086562;28;20352;-60
2021/09/11 10:57:04;;;;;;;6.80;6.30;;;;;;;;;;5077999;28;20069;-60
2021/09/11 10:59:33;;;;;;;5.85;5.45;;;;;;;;;;5070176;28;20111;-60
2021/09/11 11:02:10;;;;;;;4.47;4.18;;;;;;;;;;5071910;28;20028;-65
2021/09/11 11:04:37;;;;;;;4.38;4.07;;;;;;;;;;5091767;28;20013;-61
2021/09/11 11:07:10;;;;;;;4.20;3.90;;;;;;;;;;5091645;28;20012;-60
2021/09/11 11:09:37;;;;;;;3.42;3.22;;;;;;;;;;5091512;28;20153;-60
2021/09/11 11:12:03;;;;;;;4.13;3.83;;;;;;;;;;5090916;28;20478;-60
2021/09/11 11:14:32;;;;;;;4.63;4.22;;;;;;;;;;5091749;28;20062;-60
2021/09/11 11:16:58;;;;;;;3.85;3.65;;;;;;;;;;5082647;28;20391;-61
2021/09/11 11:19:27;;;;;;;4.32;4.03;;;;;;;;;;5091376;28;20008;-61
2021/09/11 11:22:02;;;;;;;4.38;4.07;;;;;;;;;;5091550;28;20024;-60
2021/09/11 11:24:29;;;;;;;4.60;4.28;;;;;;;;;;5091620;28;20477;-60
2021/09/11 11:26:54;;;;;;;4.97;4.50;;;;;;;;;;5091686;28;20020;-60
2021/09/11 11:29:20;;;;;;;4.90;4.47;;;;;;;;;;5091166;28;20024;-61
2021/09/11 11:31:46;;;;;;;3.30;3.10;;;;;;;;;;5091874;28;20062;-61
2021/09/11 11:34:12;;;;;;;3.85;3.55;;;;;;;;;;5088886;28;20135;-60
2021/09/11 11:36:45;;;;;;;3.03;2.70;;;;;;;;;;5091429;28;20024;-61
2021/09/11 11:39:25;;;;;;;4.53;3.00;;;;;;;;;;5095165;28;20040;-60
2021/09/11 11:41:58;;;;;;;2.20;2.08;;;;;;;;;;5095137;28;20043;-61
2021/09/11 11:44:24;;;;;;;2.22;2.03;;;;;;;;;;5095309;28;20110;-60
2021/09/11 11:46:52;;;;;;;2.60;2.40;;;;;;;;;;5094825;28;20059;-61
2021/09/11 11:49:18;;;;;;;2.85;2.65;;;;;;;;;;5095060;28;20024;-60
2021/09/11 11:51:49;;;;;;;2.83;2.63;;;;;;;;;;5095347;28;20023;-60
2021/09/11 11:54:15;;;;;;;3.20;2.70;;;;;;;;;;5086954;28;20078;-60
2021/09/11 11:56:50;;;;;;;2.60;2.50;;;;;;;;;;5074840;28;20033;-61
2021/09/11 11:59:24;;;;;;;2.72;2.53;;;;;;;;;;5074284;28;20490;-60
2021/09/11 12:01:50;;;;;;;2.22;2.10;;;;;;;;;;5074873;28;20048;-60
2021/09/11 12:04:16;;;;;;;2.47;2.28;;;;;;;;;;5094742;28;20066;-61
2021/09/11 12:06:49;;;;;;;2.58;2.38;;;;;;;;;;5094861;28;20107;-61
2021/09/11 12:09:15;;;;;;;3.10;2.97;;;;;;;;;;5093817;28;20016;-60
2021/09/11 12:11:40;;;;;;;1.90;1.80;;;;;;;;;;5090513;28;20475;-61
2021/09/11 12:14:06;;;;;;;2.53;2.33;;;;;;;;;;5094531;28;20115;-61
2021/09/11 12:16:32;;;;;;;2.85;2.17;;;;;;;;;;5094191;28;20028;-61
2021/09/11 12:19:13;;;;;;;2.40;2.30;;;;;;;;;;5094553;28;20028;-61
2021/09/11 12:21:39;;;;;;;2.47;1.75;;;;;;;;;;5093913;28;20016;-61
2021/09/11 12:24:04;;;;;;;2.03;1.93;;;;;;;;;;5094508;28;20008;-61
2021/09/11 12:26:31;;;;;;;1.70;1.65;;;;;;;;;;5092284;28;20278;-62
2021/09/11 12:29:05;;;;;;;2.03;1.85;;;;;;;;;;5091522;28;20492;-62
2021/09/11 12:31:32;;;;;;;2.15;1.77;;;;;;;;;;5094052;28;20023;-61
2021/09/11 12:33:58;;;;;;;1.92;1.83;;;;;;;;;;5094116;28;20040;-61
2021/09/11 12:36:28;;;;;;;2.00;1.90;;;;;;;;;;5094101;28;20028;-61
2021/09/11 12:38:54;;;;;;;2.00;1.90;;;;;;;;;;5093876;28;20444;-61
2021/09/11 12:41:20;;;;;;;2.50;2.30;;;;;;;;;;5094195;28;20099;-61
2021/09/11 12:43:45;;;;;;;2.55;2.35;;;;;;;;;;5091155;28;20515;-61
2021/09/11 12:46:13;;;;;;;2.47;2.38;;;;;;;;;;5081352;28;20386;-61
2021/09/11 12:48:39;;;;;;;2.75;2.55;;;;;;;;;;5093921;28;20020;-61
2021/09/11 12:51:04;;;;;;;2.60;2.50;;;;;;;;;;5094670;28;20024;-62
2021/09/11 12:53:30;;;;;;;3.33;3.05;;;;;;;;;;5093964;28;20509;-60
2021/09/11 12:55:56;;;;;;;2.58;2.47;;;;;;;;;;5093982;28;20069;-61
2021/09/11 12:58:21;;;;;;;3.00;2.80;;;;;;;;;;5093293;28;20437;-61
2021/09/11 13:00:46;;;;;;;2.35;2.25;;;;;;;;;;5092957;28;20023;-61
2021/09/11 13:03:12;;;;;;;3.03;2.73;;;;;;;;;;5093614;28;20031;-61
2021/09/11 13:05:37;;;;;;;3.50;2.53;;;;;;;;;;5075546;28;20016;-61
2021/09/11 13:08:02;;;;;;;3.23;3.00;;;;;;;;;;5093472;28;20352;-61
2021/09/11 13:10:27;;;;;;;3.28;2.97;;;;;;;;;;5093368;28;20031;-60
2021/09/11 13:12:52;;;;;;;2.93;2.77;;;;;;;;;;5093428;28;20039;-60
2021/09/11 13:15:18;;;;;;;4.63;3.27;;;;;;;;;;5093532;28;20111;-61
2021/09/11 13:17:43;;;;;;;2.77;2.57;;;;;;;;;;5081027;28;20509;-61
2021/09/11 13:20:08;;;;;;;3.47;2.63;;;;;;;;;;5072009;28;20262;-61
2021/09/11 13:22:33;;;;;;;2.95;2.83;;;;;;;;;;5073372;28;20023;-61
2021/09/11 13:24:59;;;;;;;3.05;2.85;;;;;;;;;;5073192;28;20074;-62
2021/09/11 13:27:24;;;;;;;3.13;2.83;;;;;;;;;;5073131;28;20035;-61
2021/09/11 13:29:49;;;;;;;2.97;2.87;;;;;;;;;;5087034;28;20390;-61
2021/09/11 13:32:14;;;;;;;2.75;2.55;;;;;;;;;;5093234;28;20050;-61
2021/09/11 13:34:40;;;;;;;2.47;2.37;;;;;;;;;;5088209;28;20044;-60
2021/09/11 13:37:05;;;;;;;2.22;2.00;;;;;;;;;;5093330;28;20282;-61
2021/09/11 13:39:30;;;;;;;1.50;1.50;;;;;;;;;;5092985;28;20016;-61
2021/09/11 13:41:55;;;;;;;1.80;1.70;;;;;;;;;;5092958;28;20035;-61
2021/09/11 13:44:20;;;;;;;1.63;1.52;;;;;;;;;;5092494;28;20061;-61
2021/09/11 13:46:46;;;;;;;1.23;1.23;;;;;;;;;;5093266;28;20434;-62
2021/09/11 13:49:11;;;;;;;1.90;1.63;;;;;;;;;;5092568;28;20020;-62
2021/09/11 13:51:36;;;;;;;1.45;1.45;;;;;;;;;;5074173;28;20701;-62
2021/09/11 13:54:02;;;;;;;1.65;1.55;;;;;;;;;;5092622;28;20069;-61
2021/09/11 13:56:27;;;;;;;1.30;1.30;;;;;;;;;;5092653;28;20116;-62
2021/09/11 13:58:53;;;;;;;1.10;1.10;;;;;;;;;;5091672;28;20748;-61
2021/09/11 14:01:18;;;;;;;0.93;0.93;;;;;;;;;;5092271;28;20024;-62
2021/09/11 14:03:43;;;;;;;0.87;0.70;;;;;;;;;;5092458;28;20277;-62
2021/09/11 14:06:08;;;;;;;1.07;1.07;;;;;;;;;;5092822;28;20028;-60
2021/09/11 14:08:34;;;;;;;1.20;0.93;;;;;;;;;;5091811;28;20250;-60
2021/09/11 14:10:59;;;;;;;1.25;1.25;;;;;;;;;;5087946;28;20273;-61
2021/09/11 14:13:25;;;;;;;0.97;0.97;;;;;;;;;;5092072;28;20129;-61
2021/09/11 14:15:50;;;;;;;1.20;1.10;;;;;;;;;;5092360;28;20282;-61
2021/09/11 14:18:15;;;;;;;1.10;1.10;;;;;;;;;;5092410;28;20016;-61
2021/09/11 14:20:40;;;;;;;1.00;0.90;;;;;;;;;;5092576;28;20020;-61
2021/09/11 14:23:06;;;;;;;0.85;0.85;;;;;;;;;;5074329;28;20036;-61
2021/09/11 14:25:32;;;;;;;1.53;1.43;;;;;;;;;;5092065;28;20016;-61
2021/09/11 14:27:57;;;;;;;1.00;1.00;;;;;;;;;;5086647;28;20320;-61